createdAt,value
2022-08-18T00:00:20.403Z,9.10
2022-08-18T00:03:27.360Z,7.78
2022-08-18T00:06:28.585Z,8.02
2022-08-18T00:09:28.976Z,8.32
2022-08-18T00:12:24.702Z,8.40
2022-08-18T00:15:14.039Z,7.90
2022-08-18T00:18:02.372Z,8.65
2022-08-18T00:20:50.727Z,9.35
2022-08-18T00:23:39.747Z,8.68
2022-08-18T00:26:29.718Z,8.60
2022-08-18T00:29:20.646Z,8.10
2022-08-18T00:32:20.974Z,8.65
2022-08-18T00:35:09.981Z,8.35
2022-08-18T00:37:52.082Z,9.57
2022-08-18T00:40:45.965Z,8.45
2022-08-18T00:43:41.898Z,8.60
2022-08-18T00:46:38.049Z,8.75
2022-08-18T00:49:20.018Z,9.10
2022-08-18T00:52:09.973Z,9.65
2022-08-18T00:55:00.898Z,9.07
2022-08-18T00:57:51.134Z,9.18
2022-08-18T01:00:34.693Z,8.10
2022-08-18T01:03:29.893Z,9.02
2022-08-18T01:06:19.740Z,9.45
2022-08-18T01:09:15.588Z,9.68
2022-08-18T01:12:27.943Z,9.63
2022-08-18T01:15:07.039Z,9.55
2022-08-18T01:18:14.639Z,10.45
2022-08-18T01:21:47.802Z,10.93
2022-08-18T01:24:53.924Z,10.90
2022-08-18T01:27:42.758Z,10.88
2022-08-18T01:30:28.849Z,11.90
2022-08-18T01:33:19.984Z,11.40
2022-08-18T01:36:13.389Z,10.95
2022-08-18T01:39:05.712Z,10.98
2022-08-18T01:41:54.939Z,11.48
2022-08-18T01:44:43.710Z,12.30
2022-08-18T01:47:47.834Z,12.45
2022-08-18T01:50:37.985Z,12.25
2022-08-18T01:53:26.913Z,11.40
2022-08-18T01:56:15.889Z,12.05
2022-08-18T01:59:04.886Z,12.15
2022-08-18T02:01:56.048Z,12.32
2022-08-18T02:04:38.456Z,12.10
2022-08-18T02:07:36.254Z,12.73
2022-08-18T02:10:30.596Z,11.75
2022-08-18T02:13:20.887Z,11.75
2022-08-18T02:16:11.721Z,11.25
2022-08-18T02:19:00.626Z,11.27
2022-08-18T02:21:49.734Z,10.90
2022-08-18T02:24:32.317Z,10.00
2022-08-18T02:27:22.880Z,8.77
2022-08-18T02:30:16.117Z,8.85
2022-08-18T02:32:57.754Z,7.97
2022-08-18T02:35:41.114Z,7.82
2022-08-18T02:38:29.970Z,7.05
2022-08-18T02:41:15.703Z,6.03
2022-08-18T02:44:05.012Z,8.20
2022-08-18T02:46:47.366Z,8.27
2022-08-18T02:49:35.875Z,7.22
2022-08-18T02:52:18.448Z,7.32
2022-08-18T02:55:08.978Z,7.75
2022-08-18T02:57:51.269Z,6.72
2022-08-18T03:00:39.994Z,6.90
2022-08-18T03:03:22.222Z,7.22
2022-08-18T03:06:11.047Z,7.57
2022-08-18T03:09:06.632Z,8.20
2022-08-18T03:11:56.065Z,8.52
2022-08-18T03:14:38.333Z,7.43
2022-08-18T03:17:26.639Z,7.13
2022-08-18T03:20:09.169Z,7.95
2022-08-18T03:22:57.707Z,8.05
2022-08-18T03:25:47.964Z,6.78
2022-08-18T03:28:36.872Z,6.88
2022-08-18T03:31:22.001Z,6.72
2022-08-18T03:34:15.253Z,6.13
2022-08-18T03:36:58.726Z,4.85
2022-08-18T03:39:42.154Z,5.40
2022-08-18T03:42:31.950Z,5.40
2022-08-18T03:45:20.687Z,5.03
2022-08-18T03:48:03.758Z,5.72
2022-08-18T03:50:47.315Z,4.90
2022-08-18T03:53:36.779Z,4.95
2022-08-18T03:56:25.590Z,5.13
2022-08-18T03:59:21.737Z,4.70
2022-08-18T04:02:13.089Z,5.13
2022-08-18T04:04:55.663Z,4.93
2022-08-18T04:10:40.594Z,4.60
2022-08-18T04:13:28.963Z,4.80
2022-08-18T04:16:11.236Z,5.05
2022-08-18T04:19:00.042Z,4.88
2022-08-18T04:21:47.288Z,4.40
2022-08-18T04:24:37.765Z,4.68
2022-08-18T04:27:29.967Z,5.28
2022-08-18T04:30:18.961Z,4.65
2022-08-18T04:33:07.891Z,4.60
2022-08-18T04:35:49.847Z,5.30
2022-08-18T04:38:38.784Z,5.07
2022-08-18T04:41:24.206Z,4.18
2022-08-18T04:44:15.876Z,4.40
2022-08-18T04:47:04.006Z,4.60
2022-08-18T04:49:46.638Z,4.53
2022-08-18T04:52:53.228Z,4.88
2022-08-18T04:55:36.969Z,4.53
2022-08-18T04:58:19.955Z,4.88
2022-08-18T05:01:18.018Z,4.45
2022-08-18T05:04:06.890Z,4.45
2022-08-18T05:06:58.957Z,4.40
2022-08-18T05:09:49.892Z,4.95
2022-08-18T05:16:07.156Z,4.68
2022-08-18T05:18:49.699Z,4.90
2022-08-18T05:21:34.680Z,4.03
2022-08-18T05:24:32.205Z,3.70
2022-08-18T05:27:19.034Z,4.32
2022-08-18T05:30:07.958Z,4.57
2022-08-18T05:32:59.590Z,4.78
2022-08-18T05:36:02.701Z,3.63
2022-08-18T05:39:07.410Z,3.70
2022-08-18T05:42:06.862Z,3.55
2022-08-18T05:44:59.003Z,3.90
2022-08-18T05:47:47.668Z,3.88
2022-08-18T05:50:29.991Z,4.55
2022-08-18T05:53:25.945Z,4.70
2022-08-18T05:56:38.713Z,4.50
2022-08-18T05:59:35.026Z,4.28
2022-08-18T06:02:31.050Z,4.30
2022-08-18T06:05:34.926Z,4.45
2022-08-18T06:08:28.618Z,4.75
2022-08-18T06:11:22.338Z,5.22
2022-08-18T06:14:18.933Z,5.03
2022-08-18T06:17:22.954Z,5.22
2022-08-18T06:20:13.157Z,5.45
2022-08-18T06:23:37.955Z,6.85
2022-08-18T06:26:41.217Z,6.10
2022-08-18T06:29:47.952Z,6.25
2022-08-18T06:32:44.857Z,5.65
2022-08-18T06:35:56.031Z,6.43
2022-08-18T06:39:10.228Z,6.57
2022-08-18T06:41:58.862Z,5.40
2022-08-18T06:44:51.960Z,6.40
2022-08-18T06:47:49.151Z,6.75
2022-08-18T06:51:08.694Z,7.07
2022-08-18T06:54:10.026Z,5.35
2022-08-18T06:57:00.712Z,5.68
2022-08-18T06:59:49.855Z,5.65
2022-08-18T07:03:08.695Z,5.45
2022-08-18T07:06:14.398Z,6.00
2022-08-18T07:09:12.950Z,5.07
2022-08-18T07:12:18.120Z,6.30
2022-08-18T07:15:09.656Z,5.53
2022-08-18T07:18:04.565Z,4.93
2022-08-18T07:21:19.874Z,5.00
2022-08-18T07:24:36.833Z,4.82
2022-08-18T07:27:46.963Z,4.20
2022-08-18T07:30:29.179Z,5.43
2022-08-18T07:33:29.637Z,6.45
2022-08-18T07:36:13.999Z,5.60
2022-08-18T07:39:24.640Z,5.60
2022-08-18T07:43:01.349Z,5.75
2022-08-18T07:45:54.636Z,6.70
2022-08-18T07:48:48.071Z,5.45
2022-08-18T07:51:53.219Z,5.50
2022-08-18T07:54:49.268Z,6.53
2022-08-18T07:57:47.147Z,5.60
2022-08-18T08:00:58.650Z,5.40
2022-08-18T08:04:01.238Z,5.20
2022-08-18T08:07:25.353Z,6.07
2022-08-18T08:10:33.242Z,5.78
2022-08-18T08:13:54.198Z,6.65
2022-08-18T08:17:12.934Z,7.55
2022-08-18T08:20:14.442Z,7.75
2022-08-18T08:23:25.629Z,7.07
2022-08-18T08:26:35.728Z,7.53
2022-08-18T08:29:30.884Z,6.55
2022-08-18T08:32:28.882Z,6.55
2022-08-18T08:35:48.644Z,7.60
2022-08-18T08:38:48.877Z,9.43
2022-08-18T08:41:46.704Z,9.35
2022-08-18T08:44:58.405Z,9.93
2022-08-18T08:47:51.077Z,10.57
2022-08-18T08:50:46.870Z,10.25
2022-08-18T08:53:37.031Z,9.90
2022-08-18T08:56:29.628Z,10.38
2022-08-18T08:59:17.900Z,10.60
2022-08-18T09:02:46.155Z,10.55
2022-08-18T09:05:52.155Z,11.30
2022-08-18T09:09:01.956Z,9.95
2022-08-18T09:12:02.701Z,9.77
2022-08-18T09:14:47.419Z,9.60
2022-08-18T09:18:05.989Z,9.35
2022-08-18T09:20:57.163Z,11.20
2022-08-18T09:23:59.639Z,9.93
2022-08-18T09:26:51.870Z,10.52
2022-08-18T09:30:06.645Z,9.93
2022-08-18T09:36:15.144Z,9.57
2022-08-18T09:39:24.780Z,11.98
2022-08-18T09:42:19.500Z,9.00
2022-08-18T09:45:27.714Z,9.80
2022-08-18T09:50:38.229Z,8.85
2022-08-18T09:51:45.875Z,8.25
2022-08-18T09:54:34.862Z,8.32
2022-08-18T09:57:36.837Z,9.13
2022-08-18T10:00:39.364Z,8.82
2022-08-18T10:03:31.964Z,8.00
2022-08-18T10:06:20.846Z,8.88
2022-08-18T10:09:36.806Z,8.70
2022-08-18T10:12:53.456Z,9.73
2022-08-18T10:16:10.136Z,8.60
2022-08-18T10:19:33.692Z,9.50
2022-08-18T10:22:54.791Z,9.30
2022-08-18T10:25:50.770Z,8.32
2022-08-18T10:28:58.289Z,8.02
2022-08-18T10:32:04.698Z,7.53
2022-08-18T10:34:52.295Z,8.13
2022-08-18T10:37:46.936Z,7.63
2022-08-18T10:40:31.979Z,6.43
2022-08-18T10:43:55.789Z,5.97
2022-08-18T10:46:47.929Z,7.20
2022-08-18T10:49:46.870Z,6.72
2022-08-18T10:53:40.483Z,6.38
2022-08-18T10:56:48.699Z,5.97
2022-08-18T11:00:01.719Z,6.82
2022-08-18T11:03:29.933Z,8.87
2022-08-18T11:06:23.696Z,7.88
2022-08-18T11:09:05.852Z,7.63
2022-08-18T11:12:00.087Z,7.93
2022-08-18T11:15:21.111Z,8.45
2022-08-18T11:18:15.055Z,7.90
2022-08-18T11:21:51.891Z,7.10
2022-08-18T11:24:37.775Z,7.00
2022-08-18T11:27:40.491Z,7.15
2022-08-18T11:30:30.437Z,6.45
2022-08-18T11:33:25.681Z,6.35
2022-08-18T11:36:14.719Z,6.88
2022-08-18T11:38:58.691Z,5.97
2022-08-18T11:44:50.838Z,5.55
2022-08-18T11:47:39.951Z,5.47
2022-08-18T11:50:36.947Z,5.00
2022-08-18T11:53:30.142Z,5.53
2022-08-18T11:56:38.541Z,5.20
2022-08-18T11:59:52.414Z,5.30
2022-08-18T12:02:54.135Z,5.25
2022-08-18T12:05:45.759Z,5.80
2022-08-18T12:09:00.904Z,5.55
2022-08-18T12:12:03.927Z,5.55
2022-08-18T12:15:17.148Z,6.45
2022-08-18T12:18:05.000Z,6.18
2022-08-18T12:20:53.989Z,6.35
2022-08-18T12:23:52.305Z,5.80
2022-08-18T12:26:48.065Z,5.90
2022-08-18T12:29:46.975Z,5.80
2022-08-18T12:35:47.682Z,5.43
2022-08-18T12:38:37.998Z,5.72
2022-08-18T12:41:25.872Z,6.07
2022-08-18T12:44:14.431Z,6.85
2022-08-18T12:46:56.951Z,6.35
2022-08-18T12:49:52.999Z,6.57
2022-08-18T12:52:44.049Z,6.03
2022-08-18T12:55:26.757Z,6.25
2022-08-18T12:58:09.019Z,6.82
2022-08-18T13:00:59.836Z,7.00
2022-08-18T13:03:42.627Z,6.60
2022-08-18T13:06:31.966Z,6.45
2022-08-18T13:09:41.561Z,6.88
2022-08-18T13:12:25.635Z,6.30
2022-08-18T13:15:16.228Z,6.38
2022-08-18T13:18:02.896Z,7.15
2022-08-18T13:20:52.286Z,6.40
2022-08-18T13:23:35.861Z,6.28
2022-08-18T13:26:41.568Z,6.95
2022-08-18T13:29:25.949Z,7.10
2022-08-18T13:32:16.996Z,7.78
2022-08-18T13:35:08.968Z,7.97
2022-08-18T13:37:56.387Z,7.15
2022-08-18T13:40:45.524Z,8.02
2022-08-18T13:43:47.942Z,7.70
2022-08-18T13:46:44.257Z,7.65
2022-08-18T13:49:30.625Z,7.63
2022-08-18T13:52:33.112Z,7.57
2022-08-18T13:55:28.680Z,7.95
2022-08-18T13:58:17.554Z,7.90
2022-08-18T14:04:28.022Z,7.60
2022-08-18T14:07:27.473Z,7.63
2022-08-18T14:10:13.232Z,7.28
2022-08-18T14:13:01.717Z,7.15
2022-08-18T14:16:08.867Z,7.35
2022-08-18T14:19:12.294Z,7.47
2022-08-18T14:22:20.695Z,8.23
2022-08-18T14:25:33.931Z,8.10
2022-08-18T14:28:25.711Z,8.93
2022-08-18T14:31:10.290Z,9.35
2022-08-18T14:34:03.890Z,8.60
2022-08-18T14:36:46.837Z,9.20
2022-08-18T14:42:41.447Z,9.55
2022-08-18T14:45:35.205Z,9.73
2022-08-18T14:48:18.819Z,9.98
2022-08-18T14:51:09.555Z,9.77
2022-08-18T14:53:59.656Z,9.80
2022-08-18T14:56:41.630Z,9.73
2022-08-18T14:59:23.977Z,9.55
2022-08-18T15:02:11.205Z,10.10
2022-08-18T15:05:01.671Z,10.70
2022-08-18T15:08:01.224Z,10.48
2022-08-18T15:10:50.875Z,11.50
2022-08-18T15:13:35.970Z,11.18
2022-08-18T15:16:31.551Z,11.50
2022-08-18T15:19:59.689Z,12.18
2022-08-18T15:22:34.887Z,10.32
2022-08-18T15:25:50.943Z,10.80
2022-08-18T15:28:41.002Z,10.43
2022-08-18T15:31:50.378Z,10.68
2022-08-18T15:34:47.141Z,11.80
2022-08-18T15:37:34.563Z,11.75
2022-08-18T15:40:31.277Z,10.95
2022-08-18T15:43:29.177Z,10.65
2022-08-18T15:46:19.683Z,10.75
2022-08-18T15:49:06.023Z,10.70
2022-08-18T15:51:54.952Z,11.43
2022-08-18T15:55:04.701Z,10.85
2022-08-18T15:58:12.378Z,10.57
2022-08-18T16:06:37.569Z,10.82
2022-08-18T16:09:27.137Z,11.32
2022-08-18T16:12:09.964Z,11.38
2022-08-18T16:15:00.755Z,11.73
2022-08-18T16:17:44.234Z,12.70
2022-08-18T16:20:37.680Z,12.98
2022-08-18T16:23:21.275Z,12.82
2022-08-18T16:26:10.679Z,12.93
2022-08-18T16:28:59.187Z,12.93
2022-08-18T16:31:49.752Z,13.45
2022-08-18T16:34:33.328Z,13.50
2022-08-18T16:37:21.692Z,14.40
2022-08-18T16:40:04.284Z,13.57
2022-08-18T16:42:53.905Z,14.05
2022-08-18T16:45:36.953Z,14.27
2022-08-18T16:51:19.957Z,14.65
2022-08-18T16:54:09.042Z,14.73
2022-08-18T16:56:51.703Z,15.80
2022-08-18T16:59:52.081Z,15.25
2022-08-18T17:03:01.338Z,14.90
2022-08-18T17:05:56.801Z,13.23
2022-08-18T17:08:53.939Z,12.10
2022-08-18T17:11:38.255Z,11.68
2022-08-18T17:14:42.552Z,10.98
2022-08-18T17:17:31.909Z,11.75
2022-08-18T17:20:17.722Z,11.55
2022-08-18T17:23:07.667Z,10.98
2022-08-18T17:25:49.990Z,11.07
2022-08-18T17:28:58.840Z,11.85
2022-08-18T17:31:43.132Z,12.95
2022-08-18T17:34:49.706Z,12.25
2022-08-18T17:37:33.204Z,11.73
2022-08-18T17:40:38.832Z,13.45
2022-08-18T17:43:37.741Z,14.20
2022-08-18T17:46:48.026Z,14.02
2022-08-18T17:50:27.049Z,14.60
2022-08-18T17:53:14.687Z,14.40
2022-08-18T17:56:10.915Z,15.10
2022-08-18T17:59:01.435Z,15.23
2022-08-18T18:01:50.708Z,15.45
2022-08-18T18:04:32.744Z,16.23
2022-08-18T18:07:52.125Z,15.48
2022-08-18T18:11:10.415Z,16.08
2022-08-18T18:13:52.825Z,16.13
2022-08-18T18:16:42.092Z,15.40
2022-08-18T18:19:37.586Z,16.40
2022-08-18T18:22:35.179Z,15.07
2022-08-18T18:25:19.673Z,16.48
2022-08-18T18:28:02.544Z,17.58
2022-08-18T18:30:51.709Z,17.65
2022-08-18T18:33:40.918Z,17.77
2022-08-18T18:36:43.029Z,17.77
2022-08-18T18:39:38.961Z,17.83
2022-08-18T18:42:26.044Z,18.65
2022-08-18T18:45:27.946Z,18.50
2022-08-18T18:48:48.058Z,19.13
2022-08-18T18:51:43.714Z,20.35
2022-08-18T18:55:02.662Z,21.13
2022-08-18T18:58:07.927Z,20.08
2022-08-18T19:01:00.484Z,19.25
2022-08-18T19:03:59.601Z,18.77
2022-08-18T19:07:08.580Z,18.63
2022-08-18T19:10:17.223Z,17.27
2022-08-18T19:13:33.292Z,18.67
2022-08-18T19:16:24.653Z,18.40
2022-08-18T19:19:37.371Z,18.38
2022-08-18T19:25:31.974Z,18.20
2022-08-18T19:28:31.010Z,18.40
2022-08-18T19:31:41.341Z,18.73
2022-08-18T19:34:35.692Z,18.75
2022-08-18T19:37:33.026Z,18.65
2022-08-18T19:40:28.495Z,17.90
2022-08-18T19:43:39.002Z,18.67
2022-08-18T19:46:38.942Z,17.90
2022-08-18T19:49:43.928Z,17.10
2022-08-18T19:52:56.780Z,18.35
2022-08-18T19:55:57.932Z,18.65
2022-08-18T19:59:15.632Z,17.80
2022-08-18T20:02:24.996Z,17.88
2022-08-18T20:05:35.063Z,17.63
2022-08-18T20:08:48.604Z,18.42
2022-08-18T20:11:49.625Z,17.50
2022-08-18T20:14:39.941Z,16.77
2022-08-18T20:17:30.233Z,18.75
2022-08-18T20:20:20.672Z,16.23
2022-08-18T20:23:41.026Z,15.10
2022-08-18T20:26:54.207Z,16.63
2022-08-18T20:29:43.664Z,17.40
2022-08-18T20:32:37.465Z,15.63
2022-08-18T20:35:32.682Z,14.90
2022-08-18T20:38:37.631Z,15.90
2022-08-18T20:42:01.829Z,15.45
2022-08-18T20:45:04.818Z,16.38
2022-08-18T20:48:31.836Z,17.27
2022-08-18T20:51:27.688Z,16.45
2022-08-18T20:55:03.040Z,15.60
2022-08-18T20:58:01.679Z,15.27
2022-08-18T21:00:52.084Z,17.17
2022-08-18T21:03:49.952Z,16.60
2022-08-18T21:06:48.698Z,14.55
2022-08-18T21:09:37.944Z,15.30
2022-08-18T21:12:20.667Z,16.08
2022-08-18T21:15:13.593Z,15.95
2022-08-18T21:18:22.911Z,16.70
2022-08-18T21:21:33.993Z,16.95
2022-08-18T21:24:43.795Z,16.48
2022-08-18T21:27:39.533Z,17.05
2022-08-18T21:30:36.929Z,16.83
2022-08-18T21:33:20.994Z,16.70
2022-08-18T21:36:10.580Z,16.73
2022-08-18T21:39:06.002Z,16.77
2022-08-18T21:41:55.668Z,17.92
2022-08-18T21:44:46.822Z,17.35
2022-08-18T21:47:44.921Z,17.92
2022-08-18T21:50:39.529Z,17.73
2022-08-18T21:53:28.128Z,18.15
2022-08-18T21:56:31.949Z,19.17
2022-08-18T21:59:17.588Z,16.85
2022-08-18T22:02:06.591Z,17.73
2022-08-18T22:05:01.832Z,17.17
2022-08-18T22:08:02.527Z,16.27
2022-08-18T22:11:14.914Z,14.98
2022-08-18T22:14:54.621Z,16.08
2022-08-18T22:17:48.349Z,14.57
2022-08-18T22:20:50.907Z,15.40
2022-08-18T22:23:54.678Z,16.08
2022-08-18T22:33:11.319Z,12.35
2022-08-18T22:36:10.671Z,12.07
2022-08-18T22:38:58.483Z,11.98
2022-08-18T22:41:54.735Z,10.90
2022-08-18T22:44:46.193Z,11.38
2022-08-18T22:47:43.120Z,12.15
2022-08-18T22:50:30.874Z,12.02
2022-08-18T22:53:34.940Z,11.05
2022-08-18T22:56:34.782Z,10.70
2022-08-18T22:59:22.890Z,10.63
2022-08-18T23:02:13.058Z,10.30
2022-08-18T23:05:08.345Z,10.82
2022-08-18T23:07:57.826Z,10.90
2022-08-18T23:10:52.990Z,9.18
2022-08-18T23:13:41.784Z,8.93
2022-08-18T23:16:31.501Z,9.38
2022-08-18T23:19:25.828Z,9.52
2022-08-18T23:22:16.660Z,9.18
2022-08-18T23:25:09.157Z,9.40
2022-08-18T23:27:50.929Z,9.95
2022-08-18T23:30:32.997Z,8.98
2022-08-18T23:33:22.940Z,9.77
2022-08-18T23:36:06.546Z,9.27
2022-08-18T23:38:54.723Z,9.00
2022-08-18T23:41:37.648Z,8.70
2022-08-18T23:44:27.512Z,8.27
2022-08-18T23:47:19.101Z,9.15
2022-08-18T23:50:01.860Z,8.60
2022-08-18T23:52:43.864Z,8.75
2022-08-18T23:55:35.894Z,8.68
2022-08-18T23:58:18.039Z,9.13
